createdAt,value
2023-02-08T00:00:51.708Z,4.93
2023-02-08T00:03:18.683Z,5.30
2023-02-08T00:05:45.601Z,5.13
2023-02-08T00:08:12.622Z,5.30
2023-02-08T00:10:39.869Z,4.70
2023-02-08T00:13:07.104Z,4.95
2023-02-08T00:15:34.132Z,4.50
2023-02-08T00:18:01.149Z,4.97
2023-02-08T00:20:28.203Z,4.60
2023-02-08T00:22:55.132Z,4.95
2023-02-08T00:25:22.024Z,4.55
2023-02-08T00:27:49.024Z,4.75
2023-02-08T00:30:16.206Z,3.92
2023-02-08T00:32:43.146Z,4.55
2023-02-08T00:35:10.089Z,4.55
2023-02-08T00:37:37.043Z,4.50
2023-02-08T00:40:05.819Z,3.75
2023-02-08T00:42:33.352Z,4.30
2023-02-08T00:45:00.557Z,4.32
2023-02-08T00:47:27.506Z,3.90
2023-02-08T00:49:54.521Z,3.75
2023-02-08T00:52:21.702Z,4.07
2023-02-08T00:54:48.674Z,4.35
2023-02-08T00:57:15.903Z,4.15
2023-02-08T00:59:42.952Z,4.28
2023-02-08T01:02:10.500Z,4.35
2023-02-08T01:04:38.020Z,3.67
2023-02-08T01:07:05.933Z,4.40
2023-02-08T01:09:34.120Z,4.65
2023-02-08T01:12:01.392Z,4.88
2023-02-08T01:14:28.419Z,4.38
2023-02-08T01:16:55.700Z,4.45
2023-02-08T01:19:22.721Z,4.00
2023-02-08T01:21:49.721Z,3.70
2023-02-08T01:24:17.194Z,4.82
2023-02-08T01:26:44.334Z,4.85
2023-02-08T01:29:11.497Z,4.93
2023-02-08T01:31:41.639Z,5.63
2023-02-08T01:34:09.833Z,4.78
2023-02-08T01:36:38.612Z,4.80
2023-02-08T01:41:40.004Z,3.70
2023-02-08T01:44:13.712Z,4.57
2023-02-08T01:46:45.638Z,5.07
2023-02-08T01:49:23.180Z,5.03
2023-02-08T01:52:10.214Z,4.72
2023-02-08T01:54:52.637Z,4.50
2023-02-08T01:57:22.055Z,4.45
2023-02-08T01:59:56.660Z,4.43
2023-02-08T02:02:25.362Z,4.32
2023-02-08T02:04:54.648Z,4.57
2023-02-08T02:07:26.251Z,4.80
2023-02-08T02:10:14.209Z,3.97
2023-02-08T02:12:42.183Z,4.53
2023-02-08T02:15:10.460Z,5.55
2023-02-08T02:17:39.103Z,4.70
2023-02-08T02:20:30.625Z,4.43
2023-02-08T02:23:41.199Z,4.70
2023-02-08T02:26:54.520Z,3.13
2023-02-08T02:29:40.171Z,3.78
2023-02-08T02:32:44.862Z,4.57
2023-02-08T02:35:39.752Z,5.65
2023-02-08T02:38:50.864Z,4.28
2023-02-08T02:42:16.157Z,3.90
2023-02-08T02:45:25.657Z,4.55
2023-02-08T02:48:16.974Z,4.93
2023-02-08T02:50:50.903Z,4.82
2023-02-08T02:53:54.734Z,4.20
2023-02-08T02:56:33.748Z,4.15
2023-02-08T02:59:06.652Z,4.03
2023-02-08T03:01:34.967Z,4.60
2023-02-08T03:04:18.176Z,4.40
2023-02-08T03:07:15.788Z,4.00
2023-02-08T03:10:17.815Z,4.03
2023-02-08T03:13:17.364Z,4.18
2023-02-08T03:16:25.064Z,4.60
2023-02-08T03:19:07.486Z,3.90
2023-02-08T03:21:55.071Z,3.88
2023-02-08T03:24:58.535Z,3.88
2023-02-08T03:27:30.918Z,4.13
2023-02-08T03:30:29.708Z,4.00
2023-02-08T03:33:11.864Z,3.85
2023-02-08T03:35:59.479Z,3.63
2023-02-08T03:38:42.662Z,4.07
2023-02-08T03:41:16.477Z,4.80
2023-02-08T03:44:00.242Z,4.40
2023-02-08T03:46:43.619Z,4.15
2023-02-08T03:49:24.181Z,4.65
2023-02-08T03:51:54.496Z,4.60
2023-02-08T03:54:26.430Z,3.40
2023-02-08T03:57:10.651Z,4.03
2023-02-08T03:59:42.019Z,3.90
2023-02-08T04:02:17.921Z,4.90
2023-02-08T04:04:49.014Z,4.60
2023-02-08T04:07:18.981Z,4.75
2023-02-08T04:09:46.387Z,4.95
2023-02-08T04:12:13.423Z,5.22
2023-02-08T04:14:40.346Z,5.03
2023-02-08T04:17:07.468Z,4.30
2023-02-08T04:19:34.430Z,4.28
2023-02-08T04:22:01.578Z,4.95
2023-02-08T04:24:28.537Z,5.57
2023-02-08T04:26:55.443Z,4.70
2023-02-08T04:29:22.603Z,4.90
2023-02-08T04:31:49.517Z,4.65
2023-02-08T04:34:16.534Z,4.20
2023-02-08T04:36:43.520Z,5.30
2023-02-08T04:39:10.555Z,5.55
2023-02-08T04:41:37.576Z,5.88
2023-02-08T04:44:04.503Z,5.18
2023-02-08T04:46:31.459Z,5.53
2023-02-08T04:48:59.104Z,5.50
2023-02-08T04:51:26.093Z,5.70
2023-02-08T04:53:52.999Z,5.00
2023-02-08T04:56:20.006Z,4.97
2023-02-08T04:58:48.352Z,5.25
2023-02-08T05:01:16.475Z,4.78
2023-02-08T05:03:43.486Z,5.18
2023-02-08T05:06:10.546Z,4.85
2023-02-08T05:08:37.624Z,5.03
2023-02-08T05:11:04.766Z,4.63
2023-02-08T05:13:31.652Z,5.35
2023-02-08T05:16:00.884Z,5.22
2023-02-08T05:18:28.695Z,5.25
2023-02-08T05:21:01.055Z,5.43
2023-02-08T05:23:28.325Z,4.75
2023-02-08T05:25:55.532Z,5.35
2023-02-08T05:28:22.807Z,5.28
2023-02-08T05:30:49.929Z,5.75
2023-02-08T05:33:19.676Z,5.68
2023-02-08T05:35:46.852Z,4.97
2023-02-08T05:38:13.993Z,5.15
2023-02-08T05:40:41.146Z,4.97
2023-02-08T05:43:08.242Z,5.65
2023-02-08T05:45:35.192Z,5.35
2023-02-08T05:48:02.108Z,5.05
2023-02-08T05:50:29.034Z,5.05
2023-02-08T05:52:55.932Z,5.13
2023-02-08T05:55:22.883Z,5.25
2023-02-08T05:57:49.826Z,4.97
2023-02-08T06:00:17.182Z,5.50
2023-02-08T06:02:44.159Z,5.32
2023-02-08T06:05:11.360Z,5.18
2023-02-08T06:07:38.386Z,5.20
2023-02-08T06:10:05.894Z,5.75
2023-02-08T06:12:32.802Z,5.22
2023-02-08T06:14:59.708Z,4.57
2023-02-08T06:17:26.625Z,5.22
2023-02-08T06:19:53.608Z,4.88
2023-02-08T06:22:20.520Z,5.13
2023-02-08T06:24:48.605Z,5.65
2023-02-08T06:27:15.514Z,5.85
2023-02-08T06:29:42.460Z,5.78
2023-02-08T06:32:09.513Z,5.65
2023-02-08T06:34:36.620Z,6.28
2023-02-08T06:37:05.709Z,6.07
2023-02-08T06:39:32.909Z,5.28
2023-02-08T06:41:59.839Z,5.60
2023-02-08T06:44:26.881Z,5.15
2023-02-08T06:46:53.976Z,4.75
2023-02-08T06:49:20.948Z,5.15
2023-02-08T06:51:47.894Z,5.70
2023-02-08T06:54:15.605Z,5.63
2023-02-08T06:56:43.107Z,5.15
2023-02-08T06:59:10.071Z,5.15
2023-02-08T07:01:36.988Z,7.13
2023-02-08T07:04:04.043Z,6.53
2023-02-08T07:06:31.317Z,5.50
2023-02-08T07:08:58.249Z,5.38
2023-02-08T07:11:25.200Z,5.25
2023-02-08T07:13:52.596Z,5.82
2023-02-08T07:16:20.667Z,5.65
2023-02-08T07:18:48.055Z,4.78
2023-02-08T07:21:15.248Z,5.38
2023-02-08T07:23:42.789Z,5.65
2023-02-08T07:26:12.441Z,5.45
2023-02-08T07:28:40.060Z,5.00
2023-02-08T07:31:09.823Z,5.55
2023-02-08T07:33:37.529Z,5.82
2023-02-08T07:36:05.352Z,5.28
2023-02-08T07:38:36.075Z,6.20
2023-02-08T07:41:14.130Z,5.65
2023-02-08T07:43:42.082Z,6.20
2023-02-08T07:46:17.337Z,5.93
2023-02-08T07:48:44.983Z,5.28
2023-02-08T07:51:12.910Z,5.93
2023-02-08T07:53:40.564Z,5.57
2023-02-08T07:56:07.913Z,6.63
2023-02-08T07:58:34.832Z,6.43
2023-02-08T08:01:06.998Z,7.18
2023-02-08T08:06:10.007Z,6.45
2023-02-08T08:08:36.923Z,5.90
2023-02-08T08:11:04.026Z,6.35
2023-02-08T08:13:31.048Z,7.88
2023-02-08T08:15:58.410Z,8.40
2023-02-08T08:18:25.352Z,6.15
2023-02-08T08:20:52.255Z,6.78
2023-02-08T08:23:19.840Z,7.35
2023-02-08T08:25:46.894Z,7.35
2023-02-08T08:28:13.932Z,5.68
2023-02-08T08:30:44.633Z,7.45
2023-02-08T08:33:13.904Z,7.18
2023-02-08T08:35:41.182Z,7.18
2023-02-08T08:38:08.099Z,6.88
2023-02-08T08:40:35.023Z,7.68
2023-02-08T08:43:02.216Z,6.80
2023-02-08T08:45:29.329Z,7.53
2023-02-08T08:47:56.355Z,7.10
2023-02-08T08:50:23.363Z,6.97
2023-02-08T08:52:50.296Z,6.88
2023-02-08T08:55:17.416Z,7.47
2023-02-08T08:57:44.437Z,6.97
2023-02-08T09:00:12.434Z,6.53
2023-02-08T09:02:39.418Z,7.00
2023-02-08T09:05:07.984Z,6.95
2023-02-08T09:07:35.289Z,8.65
2023-02-08T09:10:02.266Z,7.30
2023-02-08T09:12:29.359Z,7.13
2023-02-08T09:14:56.301Z,6.78
2023-02-08T09:17:23.930Z,6.70
2023-02-08T09:19:50.976Z,9.07
2023-02-08T09:22:18.775Z,7.55
2023-02-08T09:24:45.796Z,6.82
2023-02-08T09:27:12.731Z,7.72
2023-02-08T09:29:39.666Z,6.65
2023-02-08T09:32:08.329Z,6.80
2023-02-08T09:34:35.968Z,6.57
2023-02-08T09:37:02.920Z,6.78
2023-02-08T09:39:29.992Z,7.38
2023-02-08T09:42:25.143Z,7.00
2023-02-08T09:45:07.110Z,7.65
2023-02-08T09:47:44.312Z,5.60
2023-02-08T09:50:27.981Z,7.35
2023-02-08T09:53:11.786Z,6.75
2023-02-08T09:55:48.317Z,6.93
2023-02-08T09:58:34.230Z,7.65
2023-02-08T10:01:02.733Z,8.20
2023-02-08T10:03:41.444Z,6.60
2023-02-08T10:06:14.513Z,7.00
2023-02-08T10:08:44.084Z,7.28
2023-02-08T10:11:37.410Z,7.07
2023-02-08T10:14:46.832Z,8.05
2023-02-08T10:17:47.407Z,6.55
2023-02-08T10:20:25.485Z,6.35
2023-02-08T10:23:31.338Z,6.65
2023-02-08T10:26:08.017Z,6.93
2023-02-08T10:29:24.583Z,5.85
2023-02-08T10:32:15.637Z,7.10
2023-02-08T10:35:19.614Z,6.68
2023-02-08T10:37:46.871Z,6.63
2023-02-08T10:40:25.737Z,7.78
2023-02-08T10:43:36.512Z,6.75
2023-02-08T10:46:44.772Z,5.88
2023-02-08T10:49:29.427Z,6.10
2023-02-08T10:51:56.337Z,6.93
2023-02-08T10:54:23.351Z,6.07
2023-02-08T10:57:04.835Z,6.72
2023-02-08T10:59:54.664Z,6.78
2023-02-08T11:02:26.683Z,6.75
2023-02-08T11:05:10.595Z,7.22
2023-02-08T11:07:38.059Z,7.32
2023-02-08T11:10:24.968Z,6.32
2023-02-08T11:13:14.457Z,6.18
2023-02-08T11:15:53.363Z,6.28
2023-02-08T11:18:25.152Z,6.32
2023-02-08T11:20:57.348Z,6.32
2023-02-08T11:23:31.772Z,6.72
2023-02-08T11:26:27.232Z,6.68
2023-02-08T11:29:27.053Z,6.80
2023-02-08T11:32:06.312Z,6.03
2023-02-08T11:34:34.523Z,6.00
2023-02-08T11:37:28.548Z,6.18
2023-02-08T11:40:00.637Z,6.25
2023-02-08T11:42:40.831Z,6.45
2023-02-08T11:45:16.353Z,6.80
2023-02-08T11:47:48.063Z,5.65
2023-02-08T11:50:37.672Z,6.75
2023-02-08T11:53:27.656Z,6.20
2023-02-08T11:56:18.069Z,5.50
2023-02-08T11:59:02.914Z,5.73
2023-02-08T12:01:39.900Z,6.18
2023-02-08T12:04:17.912Z,6.07
2023-02-08T12:07:10.353Z,6.05
2023-02-08T12:10:06.449Z,5.38
2023-02-08T12:12:59.217Z,4.95
2023-02-08T12:16:00.619Z,5.00
2023-02-08T12:18:55.872Z,5.60
2023-02-08T12:21:35.671Z,5.25
2023-02-08T12:24:32.678Z,4.97
2023-02-08T12:27:20.417Z,5.93
2023-02-08T12:30:18.956Z,5.85
2023-02-08T12:33:17.059Z,4.57
2023-02-08T12:36:20.081Z,5.28
2023-02-08T12:39:20.921Z,5.63
2023-02-08T12:42:13.984Z,5.93
2023-02-08T12:45:40.913Z,5.32
2023-02-08T12:48:57.784Z,5.47
2023-02-08T12:52:01.437Z,5.28
2023-02-08T12:54:38.476Z,5.05
2023-02-08T12:57:10.656Z,5.10
2023-02-08T13:02:44.478Z,4.63
2023-02-08T13:05:21.214Z,5.55
2023-02-08T13:07:55.164Z,4.93
2023-02-08T13:10:53.323Z,5.72
2023-02-08T13:13:28.742Z,4.72
2023-02-08T13:16:09.454Z,4.90
2023-02-08T13:19:26.391Z,5.93
2023-02-08T13:21:54.920Z,5.53
2023-02-08T13:24:38.547Z,5.45
2023-02-08T13:27:09.064Z,4.85
2023-02-08T13:29:37.795Z,4.78
2023-02-08T13:32:31.397Z,4.97
2023-02-08T13:35:11.310Z,4.88
2023-02-08T13:37:38.713Z,4.78
2023-02-08T13:40:28.769Z,4.88
2023-02-08T13:43:09.156Z,4.30
2023-02-08T13:45:43.926Z,4.25
2023-02-08T13:48:16.569Z,4.07
2023-02-08T13:50:54.112Z,4.47
2023-02-08T13:53:39.281Z,4.63
2023-02-08T13:56:11.195Z,4.50
2023-02-08T13:58:50.273Z,4.93
2023-02-08T14:01:30.290Z,4.38
2023-02-08T14:04:09.852Z,4.13
2023-02-08T14:06:45.333Z,4.55
2023-02-08T14:09:32.955Z,4.95
2023-02-08T14:12:21.517Z,4.18
2023-02-08T14:15:14.348Z,4.70
2023-02-08T14:17:50.399Z,4.70
2023-02-08T14:20:39.805Z,3.97
2023-02-08T14:23:40.731Z,4.00
2023-02-08T14:26:20.646Z,4.18
2023-02-08T14:28:53.836Z,4.38
2023-02-08T14:31:22.657Z,5.00
2023-02-08T14:33:56.435Z,3.85
2023-02-08T14:36:34.686Z,4.35
2023-02-08T14:39:28.995Z,3.97
2023-02-08T14:42:08.428Z,4.10
2023-02-08T14:44:38.076Z,4.60
2023-02-08T14:47:11.950Z,4.03
2023-02-08T14:49:43.303Z,3.88
2023-02-08T14:52:24.434Z,4.55
2023-02-08T14:57:36.740Z,3.95
2023-02-08T15:00:27.170Z,5.47
2023-02-08T15:02:54.635Z,3.97
2023-02-08T15:05:32.382Z,4.40
2023-02-08T15:08:01.876Z,4.43
2023-02-08T15:10:30.417Z,4.93
2023-02-08T15:13:03.801Z,4.93
2023-02-08T15:15:42.747Z,5.88
2023-02-08T15:18:32.073Z,5.07
2023-02-08T15:21:15.219Z,5.22
2023-02-08T15:23:42.133Z,4.60
2023-02-08T15:26:23.130Z,4.90
2023-02-08T15:31:35.983Z,3.90
2023-02-08T15:34:03.182Z,5.07
2023-02-08T15:36:37.233Z,5.38
2023-02-08T15:39:33.859Z,5.63
2023-02-08T15:42:01.878Z,5.50
2023-02-08T15:44:34.781Z,5.88
2023-02-08T15:47:12.137Z,5.47
2023-02-08T15:49:46.040Z,5.60
2023-02-08T15:52:28.882Z,4.88
2023-02-08T15:54:56.069Z,5.18
2023-02-08T15:57:35.834Z,5.43
2023-02-08T16:00:13.153Z,5.82
2023-02-08T16:02:41.730Z,5.30
2023-02-08T16:05:26.199Z,5.78
2023-02-08T16:07:54.158Z,5.53
2023-02-08T16:10:46.460Z,7.32
2023-02-08T16:13:24.447Z,5.90
2023-02-08T16:16:15.531Z,5.53
2023-02-08T16:18:50.186Z,5.85
2023-02-08T16:21:38.243Z,8.20
2023-02-08T16:24:05.390Z,5.88
2023-02-08T16:26:56.716Z,6.07
2023-02-08T16:29:35.841Z,7.03
2023-02-08T16:32:20.122Z,6.90
2023-02-08T16:34:47.629Z,6.68
2023-02-08T16:37:32.486Z,6.75
2023-02-08T16:40:04.024Z,6.45
2023-02-08T16:42:42.563Z,6.25
2023-02-08T16:45:09.605Z,6.47
2023-02-08T16:48:00.142Z,6.22
2023-02-08T16:50:33.994Z,6.97
2023-02-08T16:53:03.669Z,7.13
2023-02-08T16:55:33.555Z,6.60
2023-02-08T16:58:00.593Z,6.63
2023-02-08T17:00:35.528Z,8.00
2023-02-08T17:03:02.758Z,8.65
2023-02-08T17:05:35.114Z,7.60
2023-02-08T17:08:09.839Z,7.78
2023-02-08T17:10:36.960Z,7.20
2023-02-08T17:13:19.377Z,8.02
2023-02-08T17:15:49.533Z,7.70
2023-02-08T17:18:16.922Z,8.40
2023-02-08T17:20:44.492Z,7.40
2023-02-08T17:23:12.612Z,7.57
2023-02-08T17:25:39.727Z,7.82
2023-02-08T17:28:13.926Z,7.75
2023-02-08T17:30:44.054Z,8.35
2023-02-08T17:33:17.742Z,7.18
2023-02-08T17:35:51.415Z,6.55
2023-02-08T17:38:20.752Z,7.25
2023-02-08T17:40:48.368Z,7.18
2023-02-08T17:43:15.546Z,7.38
2023-02-08T17:45:44.828Z,8.20
2023-02-08T17:48:15.649Z,7.07
2023-02-08T17:50:47.803Z,7.30
2023-02-08T17:53:15.434Z,7.50
2023-02-08T17:55:46.886Z,7.25
2023-02-08T17:58:14.023Z,7.32
2023-02-08T18:00:41.289Z,7.65
2023-02-08T18:03:08.305Z,6.50
2023-02-08T18:05:35.324Z,7.43
2023-02-08T18:08:02.467Z,7.70
2023-02-08T18:10:29.446Z,7.45
2023-02-08T18:12:56.411Z,7.53
2023-02-08T18:15:24.132Z,7.55
2023-02-08T18:17:51.071Z,7.20
2023-02-08T18:20:18.913Z,7.43
2023-02-08T18:22:46.038Z,6.90
2023-02-08T18:25:15.853Z,7.45
2023-02-08T18:27:43.009Z,7.22
2023-02-08T18:30:11.800Z,7.70
2023-02-08T18:32:39.443Z,8.07
2023-02-08T18:35:07.848Z,6.97
2023-02-08T18:37:36.616Z,7.35
2023-02-08T18:40:06.641Z,7.80
2023-02-08T18:42:35.890Z,8.48
2023-02-08T18:45:04.603Z,7.53
2023-02-08T18:47:31.623Z,7.57
2023-02-08T18:49:58.674Z,7.63
2023-02-08T18:52:25.889Z,7.30
2023-02-08T18:54:53.428Z,8.20
2023-02-08T18:57:20.613Z,8.57
2023-02-08T18:59:47.751Z,7.18
2023-02-08T19:02:21.182Z,7.85
2023-02-08T19:04:48.455Z,7.93
2023-02-08T19:07:16.134Z,7.90
2023-02-08T19:09:43.919Z,8.23
2023-02-08T19:12:15.154Z,8.57
2023-02-08T19:14:43.382Z,8.60
2023-02-08T19:17:11.790Z,7.85
2023-02-08T19:19:40.011Z,7.53
2023-02-08T19:22:06.931Z,8.15
2023-02-08T19:24:33.890Z,7.53
2023-02-08T19:27:00.875Z,7.65
2023-02-08T19:29:27.894Z,8.05
2023-02-08T19:31:57.800Z,8.27
2023-02-08T19:34:25.368Z,8.27
2023-02-08T19:36:54.462Z,8.05
2023-02-08T19:39:26.477Z,8.20
2023-02-08T19:41:54.577Z,8.18
2023-02-08T19:44:22.697Z,8.35
2023-02-08T19:46:55.019Z,7.35
2023-02-08T19:49:25.301Z,7.20
2023-02-08T19:51:52.711Z,7.10
2023-02-08T19:54:20.361Z,7.45
2023-02-08T19:56:50.132Z,7.18
2023-02-08T19:59:27.432Z,6.88
2023-02-08T20:01:54.843Z,7.57
2023-02-08T20:04:22.756Z,7.00
2023-02-08T20:06:53.709Z,6.63
2023-02-08T20:09:21.455Z,7.35
2023-02-08T20:11:57.129Z,6.82
2023-02-08T20:14:26.658Z,7.80
2023-02-08T20:16:53.873Z,6.57
2023-02-08T20:19:20.992Z,5.78
2023-02-08T20:21:48.094Z,5.95
2023-02-08T20:24:15.697Z,6.35
2023-02-08T20:26:46.208Z,6.40
2023-02-08T20:29:14.645Z,6.65
2023-02-08T20:31:45.238Z,7.40
2023-02-08T20:34:15.688Z,6.72
2023-02-08T20:37:05.344Z,6.93
2023-02-08T20:39:33.262Z,6.50
2023-02-08T20:42:00.205Z,6.22
2023-02-08T20:44:28.342Z,6.78
2023-02-08T20:46:57.820Z,7.35
2023-02-08T20:49:26.411Z,7.43
2023-02-08T20:51:54.458Z,7.60
2023-02-08T20:54:24.338Z,7.10
2023-02-08T20:56:53.643Z,7.20
2023-02-08T20:59:21.051Z,7.35
2023-02-08T21:01:48.330Z,8.15
2023-02-08T21:04:16.940Z,7.15
2023-02-08T21:06:46.085Z,7.18
2023-02-08T21:09:15.945Z,7.28
2023-02-08T21:11:44.456Z,7.68
2023-02-08T21:14:18.410Z,7.13
2023-02-08T21:16:55.768Z,8.13
2023-02-08T21:19:24.600Z,7.20
2023-02-08T21:21:58.082Z,7.75
2023-02-08T21:24:26.391Z,5.72
2023-02-08T21:26:56.040Z,8.85
2023-02-08T21:29:23.776Z,8.30
2023-02-08T21:31:53.532Z,7.22
2023-02-08T21:34:21.321Z,7.85
2023-02-08T21:36:48.829Z,7.88
2023-02-08T21:39:15.813Z,7.40
2023-02-08T21:41:42.904Z,7.32
2023-02-08T21:44:11.176Z,7.50
2023-02-08T21:46:38.260Z,6.95
2023-02-08T21:49:23.767Z,7.25
2023-02-08T21:52:09.684Z,7.07
2023-02-08T21:54:42.624Z,7.38
2023-02-08T21:57:29.491Z,8.55
2023-02-08T22:00:01.363Z,7.30
2023-02-08T22:02:30.682Z,7.78
2023-02-08T22:05:00.127Z,7.72
2023-02-08T22:07:28.877Z,7.22
2023-02-08T22:09:56.238Z,7.32
2023-02-08T22:12:23.584Z,8.20
2023-02-08T22:14:50.888Z,7.47
2023-02-08T22:17:18.232Z,8.40
2023-02-08T22:19:45.180Z,7.07
2023-02-08T22:22:12.453Z,6.97
2023-02-08T22:24:39.572Z,7.43
2023-02-08T22:27:06.506Z,7.47
2023-02-08T22:29:33.820Z,6.75
2023-02-08T22:32:01.249Z,6.03
2023-02-08T22:34:28.366Z,7.15
2023-02-08T22:36:55.385Z,8.15
2023-02-08T22:39:22.492Z,6.88
2023-02-08T22:41:49.611Z,6.35
2023-02-08T22:44:16.791Z,7.30
2023-02-08T22:46:43.854Z,7.32
2023-02-08T22:49:10.803Z,6.22
2023-02-08T22:51:37.962Z,6.18
2023-02-08T22:54:04.988Z,6.30
2023-02-08T22:56:32.016Z,7.53
2023-02-08T22:59:00.386Z,6.78
2023-02-08T23:01:27.803Z,6.47
2023-02-08T23:03:54.806Z,6.47
2023-02-08T23:06:21.970Z,6.53
2023-02-08T23:08:49.087Z,6.82
2023-02-08T23:11:16.415Z,5.90
2023-02-08T23:13:43.313Z,6.75
2023-02-08T23:16:16.230Z,7.22
2023-02-08T23:18:43.687Z,6.70
2023-02-08T23:21:16.998Z,7.10
2023-02-08T23:23:45.800Z,6.25
2023-02-08T23:26:18.892Z,7.28
2023-02-08T23:28:49.060Z,6.20
2023-02-08T23:31:16.138Z,6.87
2023-02-08T23:33:43.295Z,6.25
2023-02-08T23:36:18.491Z,6.55
2023-02-08T23:38:45.914Z,6.68
2023-02-08T23:41:18.508Z,6.15
2023-02-08T23:43:45.905Z,6.15
2023-02-08T23:46:22.976Z,6.30
2023-02-08T23:48:50.607Z,5.72
2023-02-08T23:51:21.395Z,6.30
2023-02-08T23:53:49.836Z,6.53
2023-02-08T23:56:29.702Z,5.85
2023-02-08T23:58:58.994Z,5.30
